sensor_id;sensor_type;location;lat;lon;timestamp;pressure;altitude;pressure_sealevel;temperature;humidity
43488;BME280;29078;41.932;25.554;2023-03-14T00:01:24;100005.16;;;6.48;39.95
43488;BME280;29078;41.932;25.554;2023-03-14T00:03:50;99899.22;;;5.92;39.33
43488;BME280;29078;41.932;25.554;2023-03-14T00:06:16;100015.47;;;6.68;39.65
43488;BME280;29078;41.932;25.554;2023-03-14T00:08:43;100004.72;;;6.62;39.50
43488;BME280;29078;41.932;25.554;2023-03-14T00:11:11;100005.69;;;6.61;39.91
43488;BME280;29078;41.932;25.554;2023-03-14T00:13:37;100014.94;;;6.65;39.43
43488;BME280;29078;41.932;25.554;2023-03-14T00:16:04;99900.72;;;5.85;39.94
43488;BME280;29078;41.932;25.554;2023-03-14T00:18:30;99861.31;;;5.67;39.93
43488;BME280;29078;41.932;25.554;2023-03-14T00:21:00;99879.63;;;5.77;39.75
43488;BME280;29078;41.932;25.554;2023-03-14T00:23:30;99950.97;;;6.19;39.56
43488;BME280;29078;41.932;25.554;2023-03-14T00:26:00;99999.78;;;6.40;39.85
43488;BME280;29078;41.932;25.554;2023-03-14T00:28:26;99962.28;;;6.10;39.78
43488;BME280;29078;41.932;25.554;2023-03-14T00:30:51;99882.66;;;5.53;39.50
43488;BME280;29078;41.932;25.554;2023-03-14T00:33:17;99722.81;;;4.18;40.28
43488;BME280;29078;41.932;25.554;2023-03-14T00:35:42;99938.19;;;5.28;40.37
43488;BME280;29078;41.932;25.554;2023-03-14T00:38:08;99958.03;;;5.40;40.43
43488;BME280;29078;41.932;25.554;2023-03-14T00:40:33;99826.22;;;4.82;40.47
43488;BME280;29078;41.932;25.554;2023-03-14T00:42:58;99983.06;;;5.83;40.46
43488;BME280;29078;41.932;25.554;2023-03-14T00:45:24;99891.19;;;5.26;40.58
43488;BME280;29078;41.932;25.554;2023-03-14T00:47:49;99992.38;;;5.96;40.60
43488;BME280;29078;41.932;25.554;2023-03-14T00:50:15;99913.66;;;5.38;40.36
43488;BME280;29078;41.932;25.554;2023-03-14T00:52:40;99802.53;;;4.83;40.13
43488;BME280;29078;41.932;25.554;2023-03-14T00:55:06;99915.91;;;5.62;39.98
43488;BME280;29078;41.932;25.554;2023-03-14T00:57:31;99877.56;;;5.42;40.46
43488;BME280;29078;41.932;25.554;2023-03-14T00:59:57;99816.59;;;4.92;40.33
43488;BME280;29078;41.932;25.554;2023-03-14T01:02:22;99932.03;;;5.77;40.00
43488;BME280;29078;41.932;25.554;2023-03-14T01:04:48;99935.19;;;5.81;40.40
43488;BME280;29078;41.932;25.554;2023-03-14T01:07:14;99933.69;;;5.68;40.48
43488;BME280;29078;41.932;25.554;2023-03-14T01:09:40;99818.66;;;4.88;40.62
43488;BME280;29078;41.932;25.554;2023-03-14T01:12:11;99597.72;;;3.44;40.88
43488;BME280;29078;41.932;25.554;2023-03-14T01:14:37;99743.13;;;4.05;40.79
43488;BME280;29078;41.932;25.554;2023-03-14T01:17:02;99796.69;;;4.51;40.93
43488;BME280;29078;41.932;25.554;2023-03-14T01:19:28;99705.19;;;4.10;41.20
43488;BME280;29078;41.932;25.554;2023-03-14T01:21:54;99689.72;;;3.67;41.12
43488;BME280;29078;41.932;25.554;2023-03-14T01:24:19;99477.56;;;2.54;40.73
43488;BME280;29078;41.932;25.554;2023-03-14T01:26:46;99509.56;;;2.87;40.98
43488;BME280;29078;41.932;25.554;2023-03-14T01:29:11;99802.69;;;4.11;40.94
43488;BME280;29078;41.932;25.554;2023-03-14T01:31:40;99832.50;;;4.39;41.26
43488;BME280;29078;41.932;25.554;2023-03-14T01:36:40;99919.44;;;5.23;41.03
43488;BME280;29078;41.932;25.554;2023-03-14T01:39:05;99785.59;;;4.37;41.28
43488;BME280;29078;41.932;25.554;2023-03-14T01:41:31;99950.91;;;5.52;41.13
43488;BME280;29078;41.932;25.554;2023-03-14T01:43:57;99920.69;;;5.28;41.29
43488;BME280;29078;41.932;25.554;2023-03-14T01:46:43;99908.91;;;5.13;41.39
43488;BME280;29078;41.932;25.554;2023-03-14T01:49:34;99861.56;;;4.76;41.38
43488;BME280;29078;41.932;25.554;2023-03-14T01:55:14;99939.91;;;5.18;41.92
43488;BME280;29078;41.932;25.554;2023-03-14T01:57:47;99718.25;;;3.80;41.75
43488;BME280;29078;41.932;25.554;2023-03-14T02:00:14;99933.09;;;4.96;42.08
43488;BME280;29078;41.932;25.554;2023-03-14T02:02:45;99932.88;;;5.08;41.65
43488;BME280;29078;41.932;25.554;2023-03-14T02:05:13;99855.03;;;4.51;41.64
43488;BME280;29078;41.932;25.554;2023-03-14T02:07:47;99684.09;;;3.41;41.82
43488;BME280;29078;41.932;25.554;2023-03-14T02:10:14;99878.34;;;4.64;41.66
43488;BME280;29078;41.932;25.554;2023-03-14T02:12:40;99897.75;;;4.71;41.50
43488;BME280;29078;41.932;25.554;2023-03-14T02:15:06;99743.16;;;3.63;41.73
43488;BME280;29078;41.932;25.554;2023-03-14T02:17:32;99862.88;;;4.51;41.80
43488;BME280;29078;41.932;25.554;2023-03-14T02:20:07;99996.16;;;4.93;42.29
43488;BME280;29078;41.932;25.554;2023-03-14T02:22:37;99898.56;;;4.41;41.88
43488;BME280;29078;41.932;25.554;2023-03-14T02:27:38;99991.84;;;4.82;42.26
43488;BME280;29078;41.932;25.554;2023-03-14T02:32:51;99723.63;;;3.37;42.08
43488;BME280;29078;41.932;25.554;2023-03-14T02:35:21;99511.41;;;2.13;42.05
43488;BME280;29078;41.932;25.554;2023-03-14T02:37:52;99668.59;;;2.98;42.21
43488;BME280;29078;41.932;25.554;2023-03-14T02:40:20;99729.94;;;3.55;42.04
43488;BME280;29078;41.932;25.554;2023-03-14T02:42:46;99675.34;;;3.01;42.00
43488;BME280;29078;41.932;25.554;2023-03-14T02:47:46;99760.63;;;3.83;42.09
43488;BME280;29078;41.932;25.554;2023-03-14T02:50:17;99899.13;;;4.44;42.11
43488;BME280;29078;41.932;25.554;2023-03-14T02:52:43;99706.19;;;3.37;42.21
43488;BME280;29078;41.932;25.554;2023-03-14T02:55:09;99723.00;;;3.44;42.22
43488;BME280;29078;41.932;25.554;2023-03-14T02:57:35;99841.56;;;4.04;42.24
43488;BME280;29078;41.932;25.554;2023-03-14T03:00:01;99867.03;;;4.33;42.48
43488;BME280;29078;41.932;25.554;2023-03-14T03:02:30;99714.34;;;3.44;42.08
43488;BME280;29078;41.932;25.554;2023-03-14T03:04:55;99717.59;;;3.36;42.84
43488;BME280;29078;41.932;25.554;2023-03-14T03:07:20;99891.84;;;4.18;42.23
43488;BME280;29078;41.932;25.554;2023-03-14T03:09:55;99480.63;;;1.32;42.76
43488;BME280;29078;41.932;25.554;2023-03-14T03:12:58;99621.59;;;2.57;42.67
43488;BME280;29078;41.932;25.554;2023-03-14T03:15:27;99486.44;;;1.78;42.49
43488;BME280;29078;41.932;25.554;2023-03-14T03:18:10;99422.72;;;1.18;43.00
43488;BME280;29078;41.932;25.554;2023-03-14T03:23:47;99566.44;;;1.76;42.95
43488;BME280;29078;41.932;25.554;2023-03-14T03:31:23;99609.41;;;2.14;43.19
43488;BME280;29078;41.932;25.554;2023-03-14T03:33:48;99418.97;;;1.00;42.86
43488;BME280;29078;41.932;25.554;2023-03-14T04:04:52;99616.00;;;1.86;43.31
43488;BME280;29078;41.932;25.554;2023-03-14T04:07:17;99363.72;;;0.31;43.23
43488;BME280;29078;41.932;25.554;2023-03-14T04:12:18;99480.66;;;1.09;43.56
43488;BME280;29078;41.932;25.554;2023-03-14T04:15:13;99637.22;;;2.13;43.57
43488;BME280;29078;41.932;25.554;2023-03-14T04:17:39;99560.97;;;1.79;43.30
43488;BME280;29078;41.932;25.554;2023-03-14T04:20:15;99349.91;;;0.42;43.72
43488;BME280;29078;41.932;25.554;2023-03-14T04:22:42;99470.47;;;1.17;43.62
43488;BME280;29078;41.932;25.554;2023-03-14T04:40:44;99599.06;;;1.91;43.45
43488;BME280;29078;41.932;25.554;2023-03-14T04:45:54;99922.41;;;3.53;44.35
43488;BME280;29078;41.932;25.554;2023-03-14T04:48:19;99578.63;;;1.20;44.11
43488;BME280;29078;41.932;25.554;2023-03-14T04:50:46;99636.72;;;1.65;44.00
43488;BME280;29078;41.932;25.554;2023-03-14T04:53:13;99376.56;;;0.10;43.73
43488;BME280;29078;41.932;25.554;2023-03-14T05:01:10;99429.59;;;0.63;43.48
43488;BME280;29078;41.932;25.554;2023-03-14T05:21:59;99662.09;;;2.17;43.71
43488;BME280;29078;41.932;25.554;2023-03-14T05:26:59;99486.31;;;1.25;43.47
43488;BME280;29078;41.932;25.554;2023-03-14T05:29:25;99535.59;;;1.49;43.84
43488;BME280;29078;41.932;25.554;2023-03-14T05:34:43;99726.31;;;2.94;43.62
43488;BME280;29078;41.932;25.554;2023-03-14T05:39:54;99432.88;;;1.21;43.76
43488;BME280;29078;41.932;25.554;2023-03-14T05:42:20;99378.94;;;0.91;43.67
43488;BME280;29078;41.932;25.554;2023-03-14T05:47:36;99514.63;;;1.73;43.89
43488;BME280;29078;41.932;25.554;2023-03-14T05:50:02;99615.34;;;2.48;43.51
43488;BME280;29078;41.932;25.554;2023-03-14T05:55:03;99702.00;;;3.25;43.36
43488;BME280;29078;41.932;25.554;2023-03-14T05:57:29;99636.81;;;2.40;43.35
43488;BME280;29078;41.932;25.554;2023-03-14T05:59:54;99695.75;;;3.16;43.48
43488;BME280;29078;41.932;25.554;2023-03-14T06:02:22;99731.97;;;3.51;43.70
43488;BME280;29078;41.932;25.554;2023-03-14T06:04:48;99684.06;;;3.11;43.58
43488;BME280;29078;41.932;25.554;2023-03-14T06:07:13;99744.78;;;3.75;43.40
43488;BME280;29078;41.932;25.554;2023-03-14T06:09:39;99920.00;;;4.86;43.13
43488;BME280;29078;41.932;25.554;2023-03-14T06:12:05;99593.00;;;3.08;43.46
43488;BME280;29078;41.932;25.554;2023-03-14T06:14:31;99616.94;;;3.13;43.46
43488;BME280;29078;41.932;25.554;2023-03-14T06:16:56;99623.34;;;3.60;43.38
43488;BME280;29078;41.932;25.554;2023-03-14T06:19:24;99805.25;;;4.72;43.28
43488;BME280;29078;41.932;25.554;2023-03-14T06:21:49;99753.59;;;4.14;43.49
43488;BME280;29078;41.932;25.554;2023-03-14T06:24:15;99824.97;;;4.86;43.90
43488;BME280;29078;41.932;25.554;2023-03-14T06:26:40;99721.16;;;4.17;43.69
43488;BME280;29078;41.932;25.554;2023-03-14T06:29:06;99899.03;;;5.26;43.75
43488;BME280;29078;41.932;25.554;2023-03-14T06:31:31;99822.25;;;5.06;43.71
43488;BME280;29078;41.932;25.554;2023-03-14T06:33:58;99554.06;;;3.56;43.94
43488;BME280;29078;41.932;25.554;2023-03-14T06:36:24;99659.69;;;4.23;43.68
43488;BME280;29078;41.932;25.554;2023-03-14T06:38:49;99824.38;;;5.22;43.65
43488;BME280;29078;41.932;25.554;2023-03-14T06:41:15;99757.94;;;4.94;43.49
43488;BME280;29078;41.932;25.554;2023-03-14T06:43:40;99850.97;;;5.66;43.68
43488;BME280;29078;41.932;25.554;2023-03-14T06:46:06;99749.66;;;5.18;43.43
43488;BME280;29078;41.932;25.554;2023-03-14T06:48:31;99836.59;;;5.80;43.04
43488;BME280;29078;41.932;25.554;2023-03-14T06:50:57;99903.31;;;6.33;43.18
43488;BME280;29078;41.932;25.554;2023-03-14T06:53:22;99820.47;;;5.94;42.77
43488;BME280;29078;41.932;25.554;2023-03-14T06:55:48;99628.09;;;4.64;42.67
43488;BME280;29078;41.932;25.554;2023-03-14T06:58:13;99897.06;;;6.54;43.24
43488;BME280;29078;41.932;25.554;2023-03-14T07:00:39;99872.16;;;6.30;42.85
43488;BME280;29078;41.932;25.554;2023-03-14T07:03:04;99945.63;;;6.58;42.77
43488;BME280;29078;41.932;25.554;2023-03-14T07:05:30;99828.34;;;6.03;43.07
43488;BME280;29078;41.932;25.554;2023-03-14T07:07:55;99808.16;;;6.14;43.22
43488;BME280;29078;41.932;25.554;2023-03-14T07:10:21;99849.19;;;6.42;43.17
43488;BME280;29078;41.932;25.554;2023-03-14T07:12:47;99741.16;;;6.01;43.14
43488;BME280;29078;41.932;25.554;2023-03-14T07:15:12;99849.19;;;6.79;43.19
43488;BME280;29078;41.932;25.554;2023-03-14T07:17:38;99828.63;;;6.75;42.67
43488;BME280;29078;41.932;25.554;2023-03-14T07:20:03;99883.75;;;7.20;42.78
43488;BME280;29078;41.932;25.554;2023-03-14T07:22:30;99771.03;;;6.46;42.89
43488;BME280;29078;41.932;25.554;2023-03-14T07:24:55;99813.66;;;6.85;42.31
43488;BME280;29078;41.932;25.554;2023-03-14T07:27:21;99796.13;;;6.85;42.63
43488;BME280;29078;41.932;25.554;2023-03-14T07:29:46;99764.00;;;6.74;42.33
43488;BME280;29078;41.932;25.554;2023-03-14T07:32:12;99849.63;;;7.38;42.47
43488;BME280;29078;41.932;25.554;2023-03-14T07:34:40;99803.78;;;7.14;42.15
43488;BME280;29078;41.932;25.554;2023-03-14T07:37:06;99890.72;;;7.74;42.04
43488;BME280;29078;41.932;25.554;2023-03-14T07:39:31;99732.75;;;6.98;42.04
43488;BME280;29078;41.932;25.554;2023-03-14T07:41:57;99764.91;;;7.18;41.41
43488;BME280;29078;41.932;25.554;2023-03-14T07:44:22;99622.16;;;6.40;41.44
43488;BME280;29078;41.932;25.554;2023-03-14T07:46:47;99778.19;;;7.34;41.03
43488;BME280;29078;41.932;25.554;2023-03-14T07:49:13;99758.00;;;7.34;41.33
43488;BME280;29078;41.932;25.554;2023-03-14T07:51:38;99759.34;;;7.39;41.13
43488;BME280;29078;41.932;25.554;2023-03-14T07:54:03;99712.78;;;7.23;41.00
43488;BME280;29078;41.932;25.554;2023-03-14T07:56:29;99811.97;;;7.90;40.46
43488;BME280;29078;41.932;25.554;2023-03-14T07:58:54;99818.69;;;8.11;40.83
43488;BME280;29078;41.932;25.554;2023-03-14T08:01:20;99839.25;;;8.15;40.95
43488;BME280;29078;41.932;25.554;2023-03-14T08:03:45;99857.19;;;8.38;40.79
43488;BME280;29078;41.932;25.554;2023-03-14T08:06:11;99835.63;;;8.34;40.93
43488;BME280;29078;41.932;25.554;2023-03-14T08:08:36;99842.94;;;8.48;40.58
43488;BME280;29078;41.932;25.554;2023-03-14T08:11:03;99782.75;;;8.19;40.36
43488;BME280;29078;41.932;25.554;2023-03-14T08:13:29;99782.47;;;8.31;40.14
43488;BME280;29078;41.932;25.554;2023-03-14T08:15:54;99713.41;;;7.94;40.19
43488;BME280;29078;41.932;25.554;2023-03-14T08:18:20;99690.47;;;7.71;40.34
43488;BME280;29078;41.932;25.554;2023-03-14T08:20:45;99760.03;;;8.44;39.42
43488;BME280;29078;41.932;25.554;2023-03-14T08:23:10;99751.16;;;8.45;39.31
43488;BME280;29078;41.932;25.554;2023-03-14T08:25:37;99777.56;;;8.78;39.29
43488;BME280;29078;41.932;25.554;2023-03-14T08:28:03;99814.41;;;9.20;39.30
43488;BME280;29078;41.932;25.554;2023-03-14T08:30:29;99706.94;;;8.57;39.29
43488;BME280;29078;41.932;25.554;2023-03-14T08:32:56;99772.56;;;9.09;39.03
43488;BME280;29078;41.932;25.554;2023-03-14T08:35:22;99772.25;;;9.20;38.75
43488;BME280;29078;41.932;25.554;2023-03-14T08:37:47;99670.28;;;8.64;39.03
43488;BME280;29078;41.932;25.554;2023-03-14T08:40:13;99703.53;;;8.81;38.86
43488;BME280;29078;41.932;25.554;2023-03-14T08:42:39;99791.72;;;9.68;38.60
43488;BME280;29078;41.932;25.554;2023-03-14T08:45:06;99792.03;;;9.81;38.31
43488;BME280;29078;41.932;25.554;2023-03-14T08:47:32;99531.25;;;8.26;38.18
43488;BME280;29078;41.932;25.554;2023-03-14T08:49:58;99680.84;;;9.37;38.07
43488;BME280;29078;41.932;25.554;2023-03-14T08:52:23;99765.31;;;9.92;37.75
43488;BME280;29078;41.932;25.554;2023-03-14T08:54:48;99703.38;;;9.72;37.42
43488;BME280;29078;41.932;25.554;2023-03-14T08:57:14;99686.84;;;9.86;36.85
43488;BME280;29078;41.932;25.554;2023-03-14T08:59:39;99603.97;;;9.25;36.73
43488;BME280;29078;41.932;25.554;2023-03-14T09:02:05;99662.91;;;9.96;35.90
43488;BME280;29078;41.932;25.554;2023-03-14T09:04:31;99771.28;;;10.80;35.71
43488;BME280;29078;41.932;25.554;2023-03-14T09:06:57;99692.13;;;10.41;35.00
43488;BME280;29078;41.932;25.554;2023-03-14T09:09:24;99773.28;;;11.01;34.97
43488;BME280;29078;41.932;25.554;2023-03-14T09:11:49;99523.19;;;9.48;34.53
43488;BME280;29078;41.932;25.554;2023-03-14T09:14:15;99679.53;;;10.52;34.14
43488;BME280;29078;41.932;25.554;2023-03-14T09:16:40;99758.75;;;11.28;34.44
43488;BME280;29078;41.932;25.554;2023-03-14T09:19:05;99698.25;;;10.88;33.57
43488;BME280;29078;41.932;25.554;2023-03-14T09:21:31;99692.75;;;10.97;33.77
43488;BME280;29078;41.932;25.554;2023-03-14T09:23:56;99635.94;;;10.78;32.85
43488;BME280;29078;41.932;25.554;2023-03-14T09:26:22;99686.81;;;11.18;33.18
43488;BME280;29078;41.932;25.554;2023-03-14T09:28:47;99638.00;;;11.06;32.86
43488;BME280;29078;41.932;25.554;2023-03-14T09:31:14;99641.09;;;11.32;32.76
43488;BME280;29078;41.932;25.554;2023-03-14T09:33:39;99613.94;;;11.38;32.95
43488;BME280;29078;41.932;25.554;2023-03-14T09:36:06;99723.91;;;12.29;32.53
43488;BME280;29078;41.932;25.554;2023-03-14T09:38:34;99665.69;;;12.00;32.19
43488;BME280;29078;41.932;25.554;2023-03-14T09:41:01;99661.63;;;12.33;31.42
43488;BME280;29078;41.932;25.554;2023-03-14T09:43:33;99631.78;;;12.25;30.33
43488;BME280;29078;41.932;25.554;2023-03-14T09:46:01;99317.31;;;10.56;30.08
43488;BME280;29078;41.932;25.554;2023-03-14T09:48:30;99631.69;;;12.54;29.80
43488;BME280;29078;41.932;25.554;2023-03-14T09:50:59;99716.84;;;13.09;29.39
43488;BME280;29078;41.932;25.554;2023-03-14T09:53:37;99630.72;;;12.77;29.48
43488;BME280;29078;41.932;25.554;2023-03-14T09:56:04;99659.84;;;13.19;29.30
43488;BME280;29078;41.932;25.554;2023-03-14T09:58:35;99689.31;;;13.52;28.99
43488;BME280;29078;41.932;25.554;2023-03-14T10:01:01;99679.22;;;13.69;28.73
43488;BME280;29078;41.932;25.554;2023-03-14T10:03:33;99674.41;;;13.86;28.07
43488;BME280;29078;41.932;25.554;2023-03-14T10:05:59;99561.19;;;13.24;26.69
43488;BME280;29078;41.932;25.554;2023-03-14T10:08:25;99582.44;;;13.30;26.44
43488;BME280;29078;41.932;25.554;2023-03-14T10:10:51;99661.59;;;13.96;26.29
43488;BME280;29078;41.932;25.554;2023-03-14T10:13:26;99634.06;;;14.04;27.08
43488;BME280;29078;41.932;25.554;2023-03-14T10:16:04;99655.91;;;14.47;26.61
43488;BME280;29078;41.932;25.554;2023-03-14T10:18:31;99626.94;;;14.58;26.29
43488;BME280;29078;41.932;25.554;2023-03-14T10:23:46;99596.88;;;14.65;26.08
43488;BME280;29078;41.932;25.554;2023-03-14T10:26:14;99644.38;;;15.27;26.22
43488;BME280;29078;41.932;25.554;2023-03-14T10:29:13;99639.84;;;15.41;26.22
43488;BME280;29078;41.932;25.554;2023-03-14T10:32:07;99570.94;;;15.19;26.28
43488;BME280;29078;41.932;25.554;2023-03-14T10:34:37;99605.25;;;15.74;26.26
43488;BME280;29078;41.932;25.554;2023-03-14T10:37:24;99618.25;;;16.02;26.00
43488;BME280;29078;41.932;25.554;2023-03-14T10:40:02;99504.13;;;15.54;25.47
43488;BME280;29078;41.932;25.554;2023-03-14T10:42:33;99480.97;;;15.54;25.48
43488;BME280;29078;41.932;25.554;2023-03-14T10:45:02;99599.97;;;16.50;25.56
43488;BME280;29078;41.932;25.554;2023-03-14T10:47:29;99489.25;;;15.91;25.47
43488;BME280;29078;41.932;25.554;2023-03-14T10:49:55;99503.13;;;16.31;25.18
43488;BME280;29078;41.932;25.554;2023-03-14T10:52:26;99540.19;;;16.71;25.16
43488;BME280;29078;41.932;25.554;2023-03-14T10:57:20;99390.34;;;16.12;25.10
43488;BME280;29078;41.932;25.554;2023-03-14T10:59:46;99545.06;;;17.24;24.93
43488;BME280;29078;41.932;25.554;2023-03-14T11:07:42;99409.50;;;16.52;24.27
43488;BME280;29078;41.932;25.554;2023-03-14T11:10:35;99399.81;;;16.58;25.05
43488;BME280;29078;41.932;25.554;2023-03-14T11:16:22;99452.84;;;17.09;25.00
43488;BME280;29078;41.932;25.554;2023-03-14T11:24:41;99472.69;;;17.68;25.06
43488;BME280;29078;41.932;25.554;2023-03-14T11:27:18;99463.09;;;17.79;25.32
43488;BME280;29078;41.932;25.554;2023-03-14T11:33:15;99449.75;;;18.09;24.79
43488;BME280;29078;41.932;25.554;2023-03-14T11:36:08;99445.47;;;18.20;24.98
43488;BME280;29078;41.932;25.554;2023-03-14T11:38:50;99433.59;;;18.16;24.75
43488;BME280;29078;41.932;25.554;2023-03-14T11:41:28;99301.13;;;17.43;24.86
43488;BME280;29078;41.932;25.554;2023-03-14T11:43:57;99364.47;;;17.96;24.63
43488;BME280;29078;41.932;25.554;2023-03-14T11:46:27;99415.16;;;18.37;24.37
43488;BME280;29078;41.932;25.554;2023-03-14T11:51:59;99366.66;;;17.99;23.75
43488;BME280;29078;41.932;25.554;2023-03-14T11:57:00;99325.03;;;17.79;23.68
43488;BME280;29078;41.932;25.554;2023-03-14T12:02:37;99376.09;;;18.13;23.62
43488;BME280;29078;41.932;25.554;2023-03-14T12:05:30;99367.81;;;17.91;23.48
43488;BME280;29078;41.932;25.554;2023-03-14T12:10:52;99360.31;;;17.40;23.70
43488;BME280;29078;41.932;25.554;2023-03-14T12:13:19;99275.88;;;16.67;24.38
43488;BME280;29078;41.932;25.554;2023-03-14T12:15:56;99290.09;;;16.79;23.85
43488;BME280;29078;41.932;25.554;2023-03-14T12:21:03;99312.50;;;16.53;23.51
43488;BME280;29078;41.932;25.554;2023-03-14T12:23:56;99179.94;;;15.76;23.27
43488;BME280;29078;41.932;25.554;2023-03-14T12:26:24;99283.59;;;16.14;22.09
43488;BME280;29078;41.932;25.554;2023-03-14T12:34:59;99281.59;;;16.28;21.14
43488;BME280;29078;41.932;25.554;2023-03-14T12:37:25;99209.16;;;15.82;21.47
43488;BME280;29078;41.932;25.554;2023-03-14T12:40:46;99298.41;;;16.28;21.01
43488;BME280;29078;41.932;25.554;2023-03-14T12:43:24;99229.03;;;15.80;20.51
43488;BME280;29078;41.932;25.554;2023-03-14T12:48:48;99227.16;;;15.62;20.63
43488;BME280;29078;41.932;25.554;2023-03-14T12:51:18;99287.28;;;16.13;20.72
43488;BME280;29078;41.932;25.554;2023-03-14T12:56:27;99242.22;;;15.93;21.33
43488;BME280;29078;41.932;25.554;2023-03-14T12:59:17;99265.53;;;16.16;20.93
43488;BME280;29078;41.932;25.554;2023-03-14T13:01:59;99234.22;;;15.93;21.30
43488;BME280;29078;41.932;25.554;2023-03-14T13:04:31;99256.91;;;16.20;21.54
43488;BME280;29078;41.932;25.554;2023-03-14T13:06:59;99247.19;;;16.26;21.65
43488;BME280;29078;41.932;25.554;2023-03-14T13:12:16;99248.75;;;16.34;21.81
43488;BME280;29078;41.932;25.554;2023-03-14T13:14:45;99160.88;;;15.97;21.85
43488;BME280;29078;41.932;25.554;2023-03-14T13:17:14;99226.94;;;16.43;21.90
43488;BME280;29078;41.932;25.554;2023-03-14T13:19:40;99149.41;;;15.78;21.80
43488;BME280;29078;41.932;25.554;2023-03-14T13:22:24;99208.94;;;16.20;21.43
43488;BME280;29078;41.932;25.554;2023-03-14T13:24:58;99107.63;;;15.79;21.72
43488;BME280;29078;41.932;25.554;2023-03-14T13:27:24;99064.91;;;15.49;21.90
43488;BME280;29078;41.932;25.554;2023-03-14T13:29:51;99215.22;;;16.63;22.11
43488;BME280;29078;41.932;25.554;2023-03-14T13:32:19;99132.16;;;16.17;21.84
43488;BME280;29078;41.932;25.554;2023-03-14T13:34:46;99203.47;;;16.70;21.78
43488;BME280;29078;41.932;25.554;2023-03-14T13:37:22;99191.66;;;16.78;21.22
43488;BME280;29078;41.932;25.554;2023-03-14T13:39:54;99183.56;;;16.84;21.73
43488;BME280;29078;41.932;25.554;2023-03-14T13:42:21;99050.38;;;16.18;21.75
43488;BME280;29078;41.932;25.554;2023-03-14T13:44:51;99165.28;;;17.00;21.41
43488;BME280;29078;41.932;25.554;2023-03-14T13:47:18;99171.16;;;17.20;21.11
43488;BME280;29078;41.932;25.554;2023-03-14T13:49:45;99159.91;;;17.18;20.71
43488;BME280;29078;41.932;25.554;2023-03-14T13:52:31;99108.50;;;17.11;20.16
43488;BME280;29078;41.932;25.554;2023-03-14T13:55:00;99002.31;;;16.55;20.27
43488;BME280;29078;41.932;25.554;2023-03-14T13:57:26;99098.31;;;17.31;20.17
43488;BME280;29078;41.932;25.554;2023-03-14T14:00:05;99154.94;;;17.80;18.98
43488;BME280;29078;41.932;25.554;2023-03-14T14:02:33;99056.88;;;17.40;20.00
43488;BME280;29078;41.932;25.554;2023-03-14T14:05:01;99145.84;;;18.16;19.89
43488;BME280;29078;41.932;25.554;2023-03-14T14:07:26;99144.66;;;18.24;19.88
43488;BME280;29078;41.932;25.554;2023-03-14T14:09:53;98989.28;;;17.63;19.28
43488;BME280;29078;41.932;25.554;2023-03-14T14:13:06;99044.88;;;18.18;18.66
43488;BME280;29078;41.932;25.554;2023-03-14T14:15:28;99130.03;;;18.83;18.44
43488;BME280;29078;41.932;25.554;2023-03-14T14:18:04;98988.56;;;18.08;18.43
43488;BME280;29078;41.932;25.554;2023-03-14T14:20:42;99111.06;;;18.85;17.77
43488;BME280;29078;41.932;25.554;2023-03-14T14:23:19;99106.59;;;18.90;17.80
43488;BME280;29078;41.932;25.554;2023-03-14T14:25:50;99019.22;;;18.34;18.51
43488;BME280;29078;41.932;25.554;2023-03-14T14:30:59;99025.63;;;18.61;18.13
43488;BME280;29078;41.932;25.554;2023-03-14T14:33:25;99089.09;;;18.99;18.47
43488;BME280;29078;41.932;25.554;2023-03-14T14:35:55;99030.03;;;18.56;18.49
43488;BME280;29078;41.932;25.554;2023-03-14T14:38:21;99045.56;;;18.70;18.60
43488;BME280;29078;41.932;25.554;2023-03-14T14:40:53;99089.72;;;19.07;18.27
43488;BME280;29078;41.932;25.554;2023-03-14T14:43:24;99072.31;;;19.04;18.27
43488;BME280;29078;41.932;25.554;2023-03-14T14:45:53;99070.53;;;18.93;18.87
43488;BME280;29078;41.932;25.554;2023-03-14T14:48:21;99033.31;;;18.75;18.95
43488;BME280;29078;41.932;25.554;2023-03-14T14:55:57;99054.44;;;18.59;19.41
43488;BME280;29078;41.932;25.554;2023-03-14T14:58:27;99049.53;;;18.39;19.81
43488;BME280;29078;41.932;25.554;2023-03-14T15:01:05;99045.34;;;18.15;20.14
43488;BME280;29078;41.932;25.554;2023-03-14T15:03:32;99043.47;;;17.87;20.65
43488;BME280;29078;41.932;25.554;2023-03-14T15:05:58;98925.97;;;16.95;20.74
43488;BME280;29078;41.932;25.554;2023-03-14T15:08:25;98995.44;;;17.12;20.91
43488;BME280;29078;41.932;25.554;2023-03-14T15:10:51;99033.41;;;17.54;20.72
43488;BME280;29078;41.932;25.554;2023-03-14T15:13:17;98974.44;;;16.92;20.90
43488;BME280;29078;41.932;25.554;2023-03-14T15:15:43;98927.50;;;16.68;21.20
43488;BME280;29078;41.932;25.554;2023-03-14T15:18:18;98935.81;;;16.60;20.86
43488;BME280;29078;41.932;25.554;2023-03-14T15:20:45;99016.50;;;17.02;21.00
43488;BME280;29078;41.932;25.554;2023-03-14T15:23:15;98958.97;;;16.47;20.84
43488;BME280;29078;41.932;25.554;2023-03-14T15:25:41;98915.91;;;15.97;20.67
43488;BME280;29078;41.932;25.554;2023-03-14T15:30:42;98928.00;;;15.81;20.56
43488;BME280;29078;41.932;25.554;2023-03-14T15:33:07;98903.56;;;15.54;20.62
43488;BME280;29078;41.932;25.554;2023-03-14T15:35:37;99008.31;;;16.08;20.75
43488;BME280;29078;41.932;25.554;2023-03-14T15:38:03;99023.50;;;16.08;21.05
43488;BME280;29078;41.932;25.554;2023-03-14T15:40:28;98903.25;;;15.33;21.16
43488;BME280;29078;41.932;25.554;2023-03-14T15:42:54;98949.47;;;15.50;21.26
43488;BME280;29078;41.932;25.554;2023-03-14T15:45:19;99014.72;;;15.89;21.31
43488;BME280;29078;41.932;25.554;2023-03-14T15:47:45;98909.75;;;15.18;21.24
43488;BME280;29078;41.932;25.554;2023-03-14T15:50:10;98938.41;;;15.16;21.43
43488;BME280;29078;41.932;25.554;2023-03-14T15:52:36;98923.34;;;15.10;21.67
43488;BME280;29078;41.932;25.554;2023-03-14T15:55:02;98911.53;;;14.88;21.71